Time;durP1;ratioP1;P1;durP2;ratioP2;P2;SDS_P1;SDS_P2;PMS_P1;PMS_P2;Temp;Humidity;BMP_temperature;BMP_pressure;BME280_temperature;BME280_humidity;BME280_pressure;Samples;Min_cycle;Max_cycle;Signal;HPM_P1;HPM_P2
2022/07/26 00:00:07;;;;;;;5.03;1.42;;;;;;;21.11;57.10;97192.31;5001823;28;20050;-61
2022/07/26 00:02:34;;;;;;;2.63;0.93;;;;;;;21.10;57.19;97192.63;4987735;28;20054;-60
2022/07/26 00:05:01;;;;;;;3.08;1.05;;;;;;;21.10;57.26;97193.47;4992088;28;20065;-60
2022/07/26 00:07:27;;;;;;;2.10;1.15;;;;;;;21.11;57.20;97191.53;4996933;28;20046;-61
2022/07/26 00:10:03;;;;;;;2.45;0.90;;;;;;;21.07;58.00;97188.59;4991041;28;20048;-62
2022/07/26 00:12:31;;;;;;;2.13;0.90;;;;;;;21.18;57.39;97195.38;4994172;28;20565;-61
2022/07/26 00:14:58;;;;;;;2.17;1.00;;;;;;;21.17;57.69;97188.28;4990719;28;20046;-61
2022/07/26 00:17:24;;;;;;;2.88;0.93;;;;;;;21.18;57.96;97200.91;4997389;28;20097;-60
2022/07/26 00:19:51;;;;;;;3.75;0.95;;;;;;;21.24;57.67;97196.03;4986800;28;20045;-61
2022/07/26 00:22:38;;;;;;;3.80;1.00;;;;;;;21.34;57.64;97205.88;4987555;28;20461;-61
2022/07/26 00:25:06;;;;;;;4.20;1.00;;;;;;;21.31;57.98;97203.78;4992002;28;20049;-61
2022/07/26 00:27:35;;;;;;;2.42;0.80;;;;;;;21.33;58.42;97208.97;4995797;28;20510;-61
2022/07/26 00:30:07;;;;;;;2.67;0.80;;;;;;;21.36;59.87;97209.13;4991130;28;20168;-61
2022/07/26 00:32:35;;;;;;;2.75;0.80;;;;;;;21.29;59.96;97211.56;5006866;28;20047;-61
2022/07/26 00:35:01;;;;;;;3.95;0.90;;;;;;;21.22;61.48;97219.53;5001830;28;20054;-61
2022/07/26 00:37:28;;;;;;;2.85;0.85;;;;;;;20.97;64.83;97219.22;4987010;28;20038;-61
2022/07/26 00:39:55;;;;;;;2.47;1.13;;;;;;;20.85;65.68;97220.63;4986647;28;20494;-61
2022/07/26 00:42:21;;;;;;;4.47;0.95;;;;;;;20.76;67.89;97234.41;4986942;28;20046;-61
2022/07/26 00:44:48;;;;;;;1.20;0.75;;;;;;;20.58;67.63;97241.00;4986856;28;20490;-61
2022/07/26 00:47:15;;;;;;;2.38;0.82;;;;;;;20.44;69.46;97249.38;4994587;28;20048;-61
2022/07/26 00:49:42;;;;;;;2.70;1.42;;;;;;;20.41;71.16;97264.56;5006063;28;20042;-61
2022/07/26 00:52:09;;;;;;;2.40;1.00;;;;;;;20.35;71.12;97263.91;4981705;28;20046;-61
2022/07/26 00:54:38;;;;;;;2.15;0.85;;;;;;;19.97;72.21;97272.66;4992112;28;20042;-61
2022/07/26 00:57:05;;;;;;;4.57;1.33;;;;;;;19.55;75.51;97275.66;5000085;28;20046;-61
2022/07/26 00:59:32;;;;;;;4.15;1.20;;;;;;;19.18;78.40;97278.47;4986905;28;20422;-61
2022/07/26 01:01:59;;;;;;;1.85;1.08;;;;;;;18.84;80.93;97275.09;4993971;28;20457;-61
2022/07/26 01:04:27;;;;;;;4.00;1.50;;;;;;;18.67;84.13;97273.00;4986363;28;20050;-60
2022/07/26 01:06:54;;;;;;;2.30;1.27;;;;;;;18.62;85.18;97270.38;4986751;28;20430;-60
2022/07/26 01:09:20;;;;;;;1.92;1.10;;;;;;;18.47;87.46;97269.59;4983079;28;20051;-60
2022/07/26 01:11:47;;;;;;;3.15;1.40;;;;;;;18.31;89.08;97261.69;4982744;28;20120;-60
2022/07/26 01:14:15;;;;;;;3.08;1.40;;;;;;;18.24;90.22;97265.94;4987160;28;20057;-60
2022/07/26 01:16:42;;;;;;;4.78;1.60;;;;;;;18.21;92.71;97259.16;4992277;28;20497;-60
2022/07/26 01:19:09;;;;;;;3.53;1.65;;;;;;;18.09;91.49;97247.88;4992713;28;20039;-61
2022/07/26 01:21:35;;;;;;;3.78;1.52;;;;;;;18.08;93.30;97238.84;4986948;28;20046;-60
2022/07/26 01:24:02;;;;;;;4.43;2.78;;;;;;;18.17;94.25;97249.91;4986260;28;20109;-61
2022/07/26 01:26:29;;;;;;;3.00;1.55;;;;;;;18.17;93.41;97247.97;5001573;28;20043;-61
2022/07/26 01:28:56;;;;;;;4.53;1.60;;;;;;;18.17;93.78;97247.97;4986431;28;20289;-60
2022/07/26 01:31:23;;;;;;;3.83;1.50;;;;;;;18.22;94.36;97255.28;4991993;28;20486;-61
2022/07/26 01:33:50;;;;;;;2.60;1.30;;;;;;;18.18;93.10;97244.13;5006121;28;20096;-61
2022/07/26 01:36:17;;;;;;;3.47;1.27;;;;;;;18.22;93.29;97246.25;4986738;28;20054;-61
2022/07/26 01:38:44;;;;;;;2.40;1.42;;;;;;;18.23;92.87;97245.94;4990321;28;20453;-60
2022/07/26 01:41:11;;;;;;;2.60;1.30;;;;;;;18.32;90.71;97254.28;4971592;28;20047;-61
2022/07/26 01:43:38;;;;;;;5.55;1.65;;;;;;;18.22;92.30;97258.03;4974683;28;20046;-61
2022/07/26 01:46:07;;;;;;;3.90;1.35;;;;;;;18.19;92.76;97247.66;5004792;28;20038;-61
2022/07/26 01:48:34;;;;;;;3.08;1.35;;;;;;;18.23;93.52;97247.88;4981556;28;20038;-61
2022/07/26 01:51:01;;;;;;;2.72;1.30;;;;;;;18.32;92.95;97248.78;4985659;28;20066;-61
2022/07/26 01:53:28;;;;;;;2.80;1.10;;;;;;;18.35;90.94;97248.16;4987865;28;20043;-61
2022/07/26 01:55:54;;;;;;;2.90;1.23;;;;;;;18.37;89.60;97240.47;4984842;28;20462;-61
2022/07/26 01:58:21;;;;;;;3.20;1.00;;;;;;;18.37;91.62;97242.38;4983443;28;20112;-60
2022/07/26 02:00:48;;;;;;;5.05;1.52;;;;;;;18.38;93.62;97233.03;4996009;28;20533;-61
2022/07/26 02:03:15;;;;;;;5.18;1.50;;;;;;;18.25;93.83;97237.44;4986940;28;20049;-61
2022/07/26 02:05:41;;;;;;;3.45;1.40;;;;;;;18.22;94.35;97238.84;4988012;28;20462;-61
2022/07/26 02:08:09;;;;;;;2.10;1.20;;;;;;;18.25;93.73;97242.91;4987484;28;20104;-61
2022/07/26 02:13:22;;;;;;;6.72;1.50;;;;;;;18.42;89.51;97253.22;5009408;28;20045;-61
2022/07/26 02:15:49;;;;;;;1.75;1.02;;;;;;;18.54;87.78;97245.28;4990329;28;20046;-61
2022/07/26 02:18:16;;;;;;;2.78;1.27;;;;;;;18.51;86.83;97243.19;4990258;28;20031;-60
2022/07/26 02:20:42;;;;;;;3.75;1.00;;;;;;;18.45;89.23;97245.22;5008306;28;20520;-61
2022/07/26 02:23:09;;;;;;;3.58;1.00;;;;;;;18.50;86.32;97247.03;5000164;28;20054;-61
2022/07/26 02:25:36;;;;;;;2.38;1.23;;;;;;;18.55;87.14;97246.94;5008672;28;20041;-61
2022/07/26 02:28:02;;;;;;;4.88;1.45;;;;;;;18.48;86.82;97245.72;5008713;28;20053;-61
2022/07/26 02:30:29;;;;;;;2.15;1.00;;;;;;;18.32;89.09;97257.81;4989010;28;20042;-61
2022/07/26 02:32:55;;;;;;;2.00;1.20;;;;;;;18.35;88.26;97250.13;4989298;28;20578;-61
2022/07/26 02:35:22;;;;;;;3.25;1.30;;;;;;;18.22;89.14;97252.56;5008023;28;20046;-60
2022/07/26 02:37:48;;;;;;;2.25;1.15;;;;;;;18.11;89.91;97243.72;5001388;28;20668;-61
2022/07/26 02:40:15;;;;;;;2.88;1.17;;;;;;;18.13;90.41;97237.94;5006461;28;20054;-61
2022/07/26 02:42:45;;;;;;;3.08;1.30;;;;;;;18.12;88.31;97237.13;5001884;28;20046;-61
2022/07/26 02:45:11;;;;;;;3.80;1.48;;;;;;;18.24;87.37;97231.13;5005234;28;20092;-61
2022/07/26 02:47:49;;;;;;;2.90;1.00;;;;;;;18.35;86.42;97226.25;5003914;28;20057;-61
2022/07/26 02:50:20;;;;;;;2.35;1.20;;;;;;;18.40;86.58;97234.38;4990931;28;20039;-61
2022/07/26 02:52:47;;;;;;;1.60;1.08;;;;;;;18.32;87.60;97238.63;4991912;28;20038;-60
2022/07/26 02:55:15;;;;;;;2.80;1.00;;;;;;;18.35;86.00;97241.88;4989002;28;20512;-61
2022/07/26 02:57:41;;;;;;;5.22;2.25;;;;;;;18.35;86.15;97239.16;4989635;28;20099;-61
2022/07/26 03:00:14;;;;;;;2.75;0.98;;;;;;;18.33;85.18;97239.44;4989128;28;20050;-61
2022/07/26 03:02:41;;;;;;;2.53;1.30;;;;;;;18.32;85.22;97227.66;4991845;28;20092;-60
2022/07/26 03:05:08;;;;;;;3.60;1.20;;;;;;;18.26;85.26;97239.03;4996072;28;20050;-61
2022/07/26 03:07:35;;;;;;;2.40;1.23;;;;;;;18.23;85.18;97234.16;4990573;28;20049;-60
2022/07/26 03:10:02;;;;;;;3.15;1.23;;;;;;;18.11;86.69;97231.94;4995456;28;20042;-61
2022/07/26 03:12:29;;;;;;;3.42;1.20;;;;;;;17.97;87.26;97226.44;4989274;28;20050;-61
2022/07/26 03:14:56;;;;;;;2.78;1.20;;;;;;;17.95;86.37;97224.03;4988551;28;20070;-61
2022/07/26 03:17:22;;;;;;;3.58;1.30;;;;;;;17.90;86.36;97230.41;4988054;28;20474;-61
2022/07/26 03:19:49;;;;;;;3.00;1.40;;;;;;;17.87;87.23;97227.47;4987358;28;20109;-61
2022/07/26 03:22:15;;;;;;;3.42;1.50;;;;;;;17.79;88.37;97232.53;4987924;28;20834;-57
2022/07/26 03:24:42;;;;;;;2.05;1.17;;;;;;;17.68;88.12;97229.16;5004823;28;20038;-58
2022/07/26 03:27:08;;;;;;;1.95;1.20;;;;;;;17.70;88.80;97228.88;4988595;28;20057;-55
2022/07/26 03:29:35;;;;;;;2.53;1.20;;;;;;;17.67;87.82;97237.69;5005887;28;20158;-56
2022/07/26 03:32:02;;;;;;;1.92;1.15;;;;;;;17.70;87.60;97233.53;5007805;28;20480;-56
2022/07/26 03:34:28;;;;;;;5.85;1.50;;;;;;;17.59;88.61;97241.09;4992481;28;20414;-58
2022/07/26 03:36:54;;;;;;;2.63;1.30;;;;;;;17.53;88.78;97245.84;5007897;28;20046;-58
2022/07/26 03:39:21;;;;;;;4.15;1.40;;;;;;;17.40;89.72;97242.00;4988246;28;20039;-58
2022/07/26 03:41:48;;;;;;;3.05;1.40;;;;;;;17.34;89.61;97245.91;4987918;28;20425;-56
2022/07/26 03:44:14;;;;;;;2.35;1.20;;;;;;;17.31;89.44;97244.59;5002166;28;20099;-58
2022/07/26 03:46:40;;;;;;;4.63;1.70;;;;;;;17.30;90.14;97240.22;4989635;28;20096;-58
2022/07/26 03:49:07;;;;;;;2.70;1.30;;;;;;;17.17;90.82;97244.53;5001469;28;20519;-58
2022/07/26 03:51:40;;;;;;;3.15;1.50;;;;;;;17.07;90.89;97251.00;4995986;28;20042;-58
2022/07/26 03:54:06;;;;;;;3.58;1.40;;;;;;;17.14;90.56;97248.69;4978874;28;20535;-58
2022/07/26 03:56:33;;;;;;;3.33;1.45;;;;;;;17.14;89.51;97250.63;4976055;28;20039;-58
2022/07/26 03:59:05;;;;;;;5.22;1.80;;;;;;;17.08;89.51;97251.78;4990872;28;20042;-58
2022/07/26 04:01:33;;;;;;;3.65;1.38;;;;;;;17.03;89.44;97253.47;4985120;28;20050;-58
2022/07/26 04:04:01;;;;;;;2.22;1.30;;;;;;;17.19;88.03;97258.75;4989009;28;20069;-58
2022/07/26 04:06:27;;;;;;;3.75;1.33;;;;;;;17.23;88.10;97254.31;4981593;28;20247;-57
2022/07/26 04:08:54;;;;;;;3.58;1.50;;;;;;;17.20;88.54;97249.41;4987461;28;20047;-55
2022/07/26 04:11:21;;;;;;;4.72;1.58;;;;;;;17.21;87.75;97256.50;4993898;28;20049;-58
2022/07/26 04:13:51;;;;;;;4.65;1.50;;;;;;;17.19;87.65;97257.91;4971976;28;20410;-56
2022/07/26 04:16:18;;;;;;;3.13;1.85;;;;;;;17.14;88.15;97256.88;5002703;28;20056;-56
2022/07/26 04:18:45;;;;;;;8.40;1.70;;;;;;;17.15;88.50;97254.97;5006340;28;20558;-58
2022/07/26 04:21:11;;;;;;;4.60;2.00;;;;;;;17.23;87.37;97258.94;5006618;28;20056;-57
2022/07/26 04:23:38;;;;;;;2.90;1.65;;;;;;;17.16;87.63;97262.06;4999987;28;20053;-57
2022/07/26 04:26:04;;;;;;;2.70;1.63;;;;;;;17.08;88.34;97268.22;4993793;28;20506;-58
2022/07/26 04:28:32;;;;;;;5.95;2.13;;;;;;;17.09;88.43;97267.09;4993616;28;20050;-56
2022/07/26 04:30:59;;;;;;;4.28;1.80;;;;;;;17.17;87.99;97266.41;5006231;28;20046;-58
2022/07/26 04:33:26;;;;;;;4.57;1.60;;;;;;;17.18;87.75;97269.97;4995115;28;20042;-58
2022/07/26 04:35:53;;;;;;;3.72;1.75;;;;;;;17.16;87.93;97276.56;4986284;28;20050;-58
2022/07/26 04:38:19;;;;;;;6.00;1.65;;;;;;;17.13;88.29;97271.69;4985468;28;20038;-57
2022/07/26 04:40:46;;;;;;;3.03;2.00;;;;;;;17.14;88.18;97273.31;4985194;28;20075;-57
2022/07/26 04:43:13;;;;;;;3.95;1.98;;;;;;;17.16;88.44;97271.09;4985166;28;20042;-55
2022/07/26 04:45:42;;;;;;;5.53;2.03;;;;;;;17.23;88.24;97281.66;4985222;28;20043;-52
2022/07/26 04:48:09;;;;;;;3.50;1.92;;;;;;;17.34;87.39;97271.38;4985380;28;20453;-54
2022/07/26 04:50:35;;;;;;;4.82;1.92;;;;;;;17.36;87.55;97280.06;4989442;28;20050;-59
2022/07/26 04:53:03;;;;;;;4.45;2.00;;;;;;;17.36;87.06;97277.34;4990698;28;20054;-61
2022/07/26 04:55:30;;;;;;;7.10;2.05;;;;;;;17.37;87.43;97284.44;4986308;28;20038;-60
2022/07/26 04:57:57;;;;;;;7.22;2.20;;;;;;;17.34;87.75;97276.00;4989300;28;20376;-61
2022/07/26 05:00:23;;;;;;;4.35;2.38;;;;;;;17.32;87.77;97283.72;4985076;28;20089;-61
2022/07/26 05:02:57;;;;;;;7.65;2.35;;;;;;;17.36;87.73;97288.28;4986006;28;20039;-61
2022/07/26 05:05:26;;;;;;;4.30;2.10;;;;;;;17.35;87.42;97294.88;4985008;28;20073;-61
2022/07/26 05:07:55;;;;;;;4.95;2.30;;;;;;;17.35;87.17;97294.88;4984372;28;20108;-60
2022/07/26 05:10:28;;;;;;;6.22;3.10;;;;;;;17.37;87.13;97295.41;4985116;28;20457;-61
2022/07/26 05:12:54;;;;;;;5.47;2.40;;;;;;;17.36;87.12;97306.66;4984547;28;20050;-60
2022/07/26 05:15:21;;;;;;;3.83;2.42;;;;;;;17.43;86.94;97296.09;4987585;28;20046;-61
2022/07/26 05:17:48;;;;;;;4.72;2.55;;;;;;;17.50;85.63;97299.28;4984839;28;20046;-61
2022/07/26 05:20:15;;;;;;;5.65;2.35;;;;;;;17.59;84.67;97302.16;4984654;28;20042;-61
2022/07/26 05:22:43;;;;;;;3.80;2.50;;;;;;;17.73;84.29;97299.44;4990136;28;20041;-61
2022/07/26 05:25:09;;;;;;;4.28;2.00;;;;;;;17.77;83.94;97302.41;4985762;28;20046;-62
2022/07/26 05:27:37;;;;;;;5.15;2.30;;;;;;;17.89;82.80;97296.44;4989213;28;20046;-61
2022/07/26 05:30:04;;;;;;;5.68;2.00;;;;;;;18.03;81.80;97299.19;4984716;28;20038;-61
2022/07/26 05:32:31;;;;;;;6.25;2.55;;;;;;;18.12;80.91;97302.88;4988749;28;20109;-61
2022/07/26 05:34:57;;;;;;;4.15;2.10;;;;;;;18.28;80.18;97299.84;4987460;28;20050;-61
2022/07/26 05:37:24;;;;;;;6.70;2.08;;;;;;;18.39;79.41;97306.72;4985653;28;20049;-61
2022/07/26 05:39:51;;;;;;;6.07;2.28;;;;;;;18.51;78.44;97311.72;4991869;28;20038;-61
2022/07/26 05:42:17;;;;;;;6.18;2.28;;;;;;;18.62;77.43;97311.50;4992519;28;20532;-61
2022/07/26 05:44:44;;;;;;;3.58;1.58;;;;;;;18.70;76.86;97303.38;4998918;28;20136;-60
2022/07/26 05:47:11;;;;;;;4.88;2.22;;;;;;;18.83;75.51;97307.19;4988811;28;20050;-53
2022/07/26 05:49:38;;;;;;;4.95;1.80;;;;;;;18.95;74.98;97306.66;4992700;28;20088;-57
2022/07/26 05:52:06;;;;;;;3.75;1.88;;;;;;;19.07;74.72;97306.16;4990459;28;20042;-54
2022/07/26 05:54:33;;;;;;;4.97;1.38;;;;;;;19.12;71.86;97301.69;4979286;28;20072;-55
2022/07/26 05:57:00;;;;;;;4.65;1.20;;;;;;;19.43;71.29;97307.25;4984934;28;20054;-55
2022/07/26 05:59:27;;;;;;;4.13;1.77;;;;;;;19.68;70.96;97304.19;4988537;28;20043;-58
2022/07/26 06:01:55;;;;;;;5.30;1.33;;;;;;;19.73;70.00;97310.34;4994369;28;20452;-54
2022/07/26 06:04:23;;;;;;;4.43;1.65;;;;;;;19.71;70.08;97309.84;4988550;28;20050;-53
2022/07/26 06:06:53;;;;;;;7.18;1.42;;;;;;;19.76;68.83;97314.41;4989905;28;20081;-56
2022/07/26 06:09:20;;;;;;;4.78;1.17;;;;;;;19.66;68.23;97315.47;4987733;28;20042;-56
2022/07/26 06:11:47;;;;;;;5.97;1.50;;;;;;;19.84;67.94;97310.09;4987005;28;20545;-55
2022/07/26 06:14:13;;;;;;;4.85;1.63;;;;;;;20.19;67.53;97314.97;4996698;28;20506;-56
2022/07/26 06:16:40;;;;;;;3.53;1.40;;;;;;;20.20;65.62;97311.09;4994421;28;20049;-56
2022/07/26 06:19:07;;;;;;;3.58;1.17;;;;;;;20.00;65.09;97316.00;4988324;28;20108;-58
2022/07/26 06:21:34;;;;;;;2.67;1.08;;;;;;;19.99;64.79;97314.38;4987010;28;20381;-56
2022/07/26 06:24:00;;;;;;;2.58;0.98;;;;;;;20.01;63.52;97303.88;4985712;28;20532;-55
2022/07/26 06:26:27;;;;;;;3.22;1.20;;;;;;;20.02;61.58;97303.56;4993888;28;20102;-57
2022/07/26 06:28:53;;;;;;;2.78;0.85;;;;;;;20.04;59.46;97302.47;4980197;28;20061;-63
2022/07/26 06:31:20;;;;;;;2.00;0.60;;;;;;;19.93;59.57;97299.16;4987732;28;20177;-66
2022/07/26 06:33:46;;;;;;;4.00;1.02;;;;;;;19.93;59.84;97304.66;4984849;28;20519;-67
2022/07/26 06:36:13;;;;;;;3.15;1.35;;;;;;;19.99;59.23;97311.66;4986206;28;20093;-67
2022/07/26 06:38:40;;;;;;;3.25;0.70;;;;;;;20.01;58.56;97312.13;4987250;28;20057;-66
2022/07/26 06:41:06;;;;;;;3.17;1.13;;;;;;;19.88;57.88;97311.91;4985415;28;20038;-68
2022/07/26 06:43:33;;;;;;;3.05;0.98;;;;;;;20.01;57.93;97307.44;4987859;28;20050;-67
2022/07/26 06:46:00;;;;;;;1.92;0.70;;;;;;;20.01;55.81;97303.88;4988556;28;20437;-66
2022/07/26 06:48:26;;;;;;;2.22;0.90;;;;;;;20.18;56.08;97316.09;4988668;28;20589;-67
2022/07/26 06:50:54;;;;;;;2.10;0.70;;;;;;;20.22;55.32;97314.31;4988293;28;20042;-66
2022/07/26 06:53:20;;;;;;;4.00;1.05;;;;;;;20.26;54.47;97318.06;4996124;28;20049;-67
2022/07/26 06:55:47;;;;;;;5.15;1.00;;;;;;;20.31;54.26;97315.16;4997345;28;20038;-64
2022/07/26 06:58:14;;;;;;;3.67;0.90;;;;;;;20.27;54.02;97308.72;5009028;28;20045;-65
2022/07/26 07:00:40;;;;;;;2.03;0.80;;;;;;;20.39;54.11;97314.38;4992600;28;20417;-67
2022/07/26 07:03:07;;;;;;;2.50;0.80;;;;;;;20.48;54.13;97311.69;4986366;28;20052;-67
2022/07/26 07:05:33;;;;;;;3.45;1.25;;;;;;;20.58;53.92;97307.81;4980414;28;20034;-68
2022/07/26 07:08:00;;;;;;;2.67;0.80;;;;;;;20.64;53.27;97319.50;4985617;28;20051;-67
2022/07/26 07:10:27;;;;;;;2.03;0.77;;;;;;;20.69;52.53;97308.34;4978084;28;20042;-67
2022/07/26 07:12:54;;;;;;;2.42;1.00;;;;;;;20.66;51.51;97307.03;4987979;28;20555;-66
2022/07/26 07:15:21;;;;;;;1.83;0.80;;;;;;;20.78;51.30;97313.84;4995318;28;20042;-64
2022/07/26 07:17:50;;;;;;;2.08;0.70;;;;;;;20.75;51.73;97312.53;4988270;28;20413;-66
2022/07/26 07:20:16;;;;;;;2.50;1.25;;;;;;;20.89;51.01;97323.44;4989874;28;20402;-67
2022/07/26 07:22:43;;;;;;;4.10;0.82;;;;;;;20.87;50.23;97314.72;4991310;28;20054;-67
2022/07/26 07:25:10;;;;;;;4.43;0.90;;;;;;;20.77;50.53;97315.81;4990227;28;20245;-67
2022/07/26 07:27:40;;;;;;;2.60;1.35;;;;;;;20.85;50.04;97313.38;4992054;28;20056;-62
2022/07/26 07:30:09;;;;;;;3.05;0.88;;;;;;;20.78;50.57;97317.41;4984415;28;20046;-68
2022/07/26 07:32:36;;;;;;;5.15;0.80;;;;;;;20.82;50.16;97316.78;4996250;28;20054;-62
2022/07/26 07:35:03;;;;;;;2.17;0.60;;;;;;;20.83;49.41;97315.63;4991789;28;20062;-69
2022/07/26 07:37:38;;;;;;;6.10;0.77;;;;;;;21.01;49.97;97316.50;4995086;28;20054;-69
2022/07/26 07:40:20;;;;;;;1.58;0.40;;;;;;;21.13;49.46;97316.69;4981371;28;20100;-71
2022/07/26 07:42:48;;;;;;;2.17;0.60;;;;;;;21.09;50.53;97312.13;4985055;28;20065;-67
2022/07/26 07:45:14;;;;;;;4.72;1.00;;;;;;;21.15;49.20;97328.16;4987887;28;20425;-68
2022/07/26 07:47:41;;;;;;;1.70;0.80;;;;;;;21.16;48.66;97318.78;4989299;28;20054;-68
2022/07/26 07:50:07;;;;;;;3.67;0.80;;;;;;;21.34;48.58;97318.78;4991209;28;20042;-63
2022/07/26 07:52:34;;;;;;;3.20;0.60;;;;;;;21.44;48.31;97312.94;4986722;28;20049;-63
2022/07/26 07:55:01;;;;;;;5.90;0.70;;;;;;;21.47;48.31;97317.00;4993972;28;20054;-64
2022/07/26 07:57:48;;;;;;;3.90;0.60;;;;;;;21.44;47.59;97315.69;4984207;28;20082;-63
2022/07/26 08:00:17;;;;;;;1.35;0.60;;;;;;;21.36;48.00;97316.50;4978434;28;20042;-69
2022/07/26 08:02:45;;;;;;;3.65;0.47;;;;;;;21.60;48.47;97306.13;4985180;28;20046;-68
2022/07/26 08:05:12;;;;;;;2.38;0.60;;;;;;;21.76;47.21;97311.94;4972149;28;20050;-63
2022/07/26 08:07:41;;;;;;;2.95;0.93;;;;;;;21.63;47.87;97309.03;4984676;28;20464;-64
2022/07/26 08:10:08;;;;;;;1.45;0.60;;;;;;;21.86;46.71;97306.09;4984157;28;20053;-62
2022/07/26 08:12:35;;;;;;;2.42;0.73;;;;;;;21.74;46.56;97311.47;4990154;28;20065;-63
2022/07/26 08:15:03;;;;;;;2.13;0.75;;;;;;;21.95;47.60;97309.66;4986770;28;20622;-62
2022/07/26 08:17:34;;;;;;;2.58;0.70;;;;;;;22.16;46.61;97319.97;4981891;28;20121;-62
2022/07/26 08:20:07;;;;;;;1.67;0.65;;;;;;;22.02;46.20;97311.91;4993944;28;20041;-63
2022/07/26 08:22:37;;;;;;;1.40;0.60;;;;;;;21.51;46.80;97317.97;4987237;28;20046;-65
2022/07/26 08:25:04;;;;;;;2.45;0.52;;;;;;;21.76;46.87;97325.72;4986497;28;20042;-64
2022/07/26 08:27:31;;;;;;;2.58;0.70;;;;;;;21.89;46.44;97321.97;4986727;28;20065;-65
2022/07/26 08:30:06;;;;;;;1.98;0.80;;;;;;;21.87;47.88;97323.44;4984744;28;20211;-66
2022/07/26 08:32:34;;;;;;;4.22;1.02;;;;;;;21.62;47.07;97323.13;4984818;28;20043;-68
2022/07/26 08:35:01;;;;;;;2.53;0.60;;;;;;;21.65;46.52;97322.47;4984602;28;20054;-68
2022/07/26 08:37:45;;;;;;;2.53;0.82;;;;;;;21.56;47.77;97317.78;4979488;28;20129;-68
2022/07/26 08:40:12;;;;;;;3.47;0.77;;;;;;;21.61;46.64;97322.34;4964671;28;20043;-68
2022/07/26 08:42:39;;;;;;;2.33;0.85;;;;;;;21.47;47.48;97332.69;4964040;28;20250;-65
2022/07/26 08:45:06;;;;;;;2.28;0.80;;;;;;;21.64;47.50;97329.13;4957821;28;20051;-65
2022/07/26 08:47:33;;;;;;;1.50;0.52;;;;;;;21.92;46.92;97339.78;4964419;28;20138;-66
2022/07/26 08:50:08;;;;;;;2.22;0.70;;;;;;;22.00;45.92;97338.19;4957996;28;20070;-65
2022/07/26 08:52:38;;;;;;;2.08;0.90;;;;;;;21.85;45.90;97345.00;4964865;28;20057;-65
2022/07/26 08:55:05;;;;;;;2.13;0.57;;;;;;;21.77;45.28;97332.84;4956961;28;20046;-67
2022/07/26 08:57:32;;;;;;;0.88;0.50;;;;;;;21.94;45.58;97338.34;4973910;28;20039;-67
2022/07/26 09:00:25;;;;;;;2.72;0.63;;;;;;;22.09;44.04;97353.56;4961979;28;20314;-68
2022/07/26 09:02:52;;;;;;;3.00;0.60;;;;;;;22.03;44.76;97349.34;4962767;28;20505;-68
2022/07/26 09:05:24;;;;;;;3.70;0.68;;;;;;;22.13;44.52;97350.13;4963607;28;20095;-68
2022/07/26 09:07:51;;;;;;;1.23;0.60;;;;;;;22.01;44.36;97353.56;4964847;28;20530;-66
2022/07/26 09:10:17;;;;;;;3.38;0.57;;;;;;;21.61;45.69;97344.38;4956246;28;20093;-67
2022/07/26 09:12:44;;;;;;;1.17;0.60;;;;;;;21.80;46.00;97341.28;4964821;28;20735;-69
2022/07/26 09:15:20;;;;;;;1.95;0.63;;;;;;;22.07;45.67;97343.97;4963486;28;20046;-67
2022/07/26 09:17:50;;;;;;;2.20;0.93;;;;;;;22.21;45.44;97352.88;4963453;28;20054;-67
2022/07/26 09:20:23;;;;;;;3.13;0.60;;;;;;;22.08;45.58;97351.91;4959200;28;20047;-66
2022/07/26 09:22:57;;;;;;;1.33;0.60;;;;;;;22.18;44.84;97348.00;4964595;28;20303;-66
2022/07/26 09:25:25;;;;;;;3.47;0.80;;;;;;;22.02;46.27;97352.41;4957962;28;20051;-69
2022/07/26 09:27:51;;;;;;;3.05;0.70;;;;;;;22.45;45.89;97353.44;4953855;28;20555;-68
2022/07/26 09:30:18;;;;;;;3.60;0.70;;;;;;;22.36;45.48;97347.94;4959671;28;20038;-68
2022/07/26 09:33:14;;;;;;;2.40;0.60;;;;;;;22.54;45.88;97350.63;4964723;28;20435;-67
2022/07/26 09:35:41;;;;;;;3.00;0.63;;;;;;;22.31;46.02;97359.97;4947364;28;20059;-63
2022/07/26 09:38:17;;;;;;;2.67;0.60;;;;;;;22.31;46.48;97370.19;4963991;28;20043;-63
2022/07/26 09:40:44;;;;;;;2.10;0.88;;;;;;;22.13;46.79;97364.72;4960123;28;20035;-63
2022/07/26 09:43:16;;;;;;;3.90;0.85;;;;;;;22.21;45.45;97374.09;4959517;28;20130;-66
2022/07/26 09:46:05;;;;;;;3.03;0.70;;;;;;;22.04;46.29;97370.25;4962499;28;20125;-66
2022/07/26 09:48:35;;;;;;;3.15;0.70;;;;;;;22.21;47.13;97372.16;4963632;28;20392;-68
2022/07/26 09:51:46;;;;;;;2.42;0.80;;;;;;;22.68;45.86;97375.25;4964082;28;20558;-66
2022/07/26 09:54:31;;;;;;;3.08;0.68;;;;;;;22.57;45.74;97359.09;4955154;28;20063;-67
2022/07/26 09:56:58;;;;;;;3.28;0.73;;;;;;;22.56;46.55;97370.44;4962636;28;20498;-66
2022/07/26 09:59:27;;;;;;;2.65;0.73;;;;;;;22.53;46.16;97357.28;4963046;28;20046;-67
2022/07/26 10:01:56;;;;;;;1.75;0.90;;;;;;;22.37;47.19;97381.84;4954258;28;20051;-67
2022/07/26 10:04:24;;;;;;;3.10;0.98;;;;;;;22.43;46.53;97381.34;4960046;28;20074;-68
2022/07/26 10:06:52;;;;;;;3.08;0.80;;;;;;;21.83;46.66;97387.47;4953556;28;20050;-67
2022/07/26 10:09:21;;;;;;;2.05;0.60;;;;;;;21.90;47.23;97375.97;4963224;28;20046;-65
2022/07/26 10:11:58;;;;;;;2.17;0.70;;;;;;;22.56;46.28;97384.25;4961164;28;20495;-66
2022/07/26 10:14:40;;;;;;;3.47;0.88;;;;;;;22.67;45.74;97370.88;4963503;28;20050;-66
2022/07/26 10:17:25;;;;;;;2.33;0.80;;;;;;;22.56;45.85;97375.97;4959014;28;20051;-66
2022/07/26 10:20:00;;;;;;;3.63;1.10;;;;;;;22.72;44.94;97385.31;4962342;28;20481;-66
2022/07/26 10:22:32;;;;;;;1.92;0.70;;;;;;;22.78;44.47;97372.13;4962967;28;20050;-66
2022/07/26 10:25:45;;;;;;;2.95;0.70;;;;;;;22.70;45.03;97365.50;4958966;28;20050;-66
2022/07/26 10:28:23;;;;;;;2.28;1.25;;;;;;;22.94;43.93;97379.81;4965521;28;20058;-65
2022/07/26 10:30:50;;;;;;;0.88;0.50;;;;;;;22.84;44.07;97368.03;4963129;28;20055;-65
2022/07/26 10:33:20;;;;;;;2.25;0.77;;;;;;;23.09;43.69;97370.16;4966869;28;20051;-65
2022/07/26 10:35:46;;;;;;;2.03;0.60;;;;;;;23.08;43.20;97376.81;4963478;28;20047;-65
2022/07/26 10:38:23;;;;;;;3.80;1.30;;;;;;;23.22;42.63;97368.28;4967281;28;20549;-65
2022/07/26 10:41:06;;;;;;;2.45;0.60;;;;;;;23.21;42.00;97375.75;4967060;28;20056;-65
2022/07/26 10:43:33;;;;;;;2.75;0.70;;;;;;;22.86;42.13;97379.53;4963818;28;20106;-65
2022/07/26 10:46:22;;;;;;;1.88;0.80;;;;;;;22.67;42.87;97374.44;4966428;28;20057;-65
2022/07/26 10:49:02;;;;;;;1.00;0.60;;;;;;;23.03;42.80;97377.81;4967630;28;20061;-65
2022/07/26 10:51:38;;;;;;;2.75;0.63;;;;;;;23.64;42.30;97386.84;4967013;28;20072;-65
2022/07/26 10:54:07;;;;;;;2.00;0.70;;;;;;;23.89;40.82;97384.19;4967041;28;20062;-65
2022/07/26 10:56:35;;;;;;;4.23;0.63;;;;;;;24.08;41.06;97385.59;4964091;28;20701;-65
2022/07/26 10:59:04;;;;;;;2.22;0.60;;;;;;;24.16;39.85;97381.97;4966752;28;20289;-63
2022/07/26 11:01:35;;;;;;;1.42;0.60;;;;;;;23.97;39.04;97385.22;4966515;28;20470;-63
2022/07/26 11:04:03;;;;;;;2.45;0.57;;;;;;;23.98;39.55;97395.94;4966090;28;20510;-63
2022/07/26 11:06:31;;;;;;;1.50;0.65;;;;;;;24.15;39.09;97372.06;4965897;28;20046;-63
2022/07/26 11:09:08;;;;;;;1.73;0.50;;;;;;;24.68;38.34;97379.72;4965944;28;20256;-63
2022/07/26 11:11:34;;;;;;;2.47;1.05;;;;;;;24.55;39.13;97390.00;4963020;28;20058;-63
2022/07/26 11:14:04;;;;;;;4.10;0.85;;;;;;;24.40;38.85;97374.88;4961544;28;20050;-67
2022/07/26 11:16:43;;;;;;;0.82;0.43;;;;;;;24.56;38.35;97369.47;4956420;28;20105;-64
2022/07/26 11:19:22;;;;;;;3.28;0.80;;;;;;;24.36;39.03;97371.19;4965535;28;20043;-66
2022/07/26 11:21:54;;;;;;;2.22;0.55;;;;;;;24.48;38.73;97371.22;4951308;28;20102;-64
2022/07/26 11:24:20;;;;;;;2.72;0.47;;;;;;;24.59;38.08;97382.63;4957856;28;20055;-63
2022/07/26 11:26:47;;;;;;;2.85;1.88;;;;;;;23.76;39.81;97380.53;4960197;28;20054;-66
2022/07/26 11:29:14;;;;;;;2.63;0.80;;;;;;;24.15;38.90;97377.59;4962473;28;20055;-66
2022/07/26 11:31:47;;;;;;;1.42;0.45;;;;;;;24.24;38.92;97371.94;4965601;28;20295;-65
2022/07/26 11:34:32;;;;;;;1.65;0.85;;;;;;;24.54;38.59;97380.06;4970690;28;20054;-64
2022/07/26 11:37:01;;;;;;;2.30;0.70;;;;;;;24.68;38.20;97377.78;4958186;28;20146;-65
2022/07/26 11:39:33;;;;;;;2.65;0.80;;;;;;;24.77;37.74;97372.13;4951266;28;20407;-64
2022/07/26 11:42:08;;;;;;;3.15;0.60;;;;;;;25.30;36.93;97362.28;4961599;28;20353;-61
2022/07/26 11:44:35;;;;;;;2.00;0.50;;;;;;;25.15;36.28;97372.13;4962322;28;20046;-65